FLX714 SBJU-SBVC
Flight info
| Callsign | FLX714 |
|---|---|
| Flight time | 1h 18m |
| Altitude | 34000 |
| Route | KUBNO UZ19 TIPDA UZ94 TITRO UZ29 LOBIM UZ72 LODOT |
| Aircraft | E190/M-SDE3GILORVW/S |
Departure
| Time | 2026-05-05 18:38 |
|---|---|
| Airport | Orlando Bezerra de Menezes Airport (SBJU) |
Arrival
| Time | 2026-05-05 19:56 |
|---|---|
| Airport | Glauber de Andrade Rocha Airport (SBVC) |
| Time | Latitude | Longitude | Altitude | Speed | Heading |
|---|---|---|---|---|---|
| 2026-05-05 18:20 | -7.21588 | -39.27216 | 1359 ft | 0 kts | 20° |
| 2026-05-05 18:30 | -7.21594 | -39.27219 | 1360 ft | 0 kts | 20° |
| 2026-05-05 18:30 | -7.21608 | -39.27222 | 1360 ft | 2 kts | 6° |
| 2026-05-05 18:30 | -7.21623 | -39.27222 | 1361 ft | 2 kts | 352° |
| 2026-05-05 18:31 | -7.21637 | -39.27219 | 1361 ft | 2 kts | 338° |
| 2026-05-05 18:31 | -7.21643 | -39.27216 | 1361 ft | 1 kts | 330° |
| 2026-05-05 18:31 | -7.21646 | -39.27214 | 1361 ft | 0 kts | 332° |
| 2026-05-05 18:33 | -7.21645 | -39.27215 | 1361 ft | 0 kts | 332° |
| 2026-05-05 18:34 | -7.21636 | -39.27220 | 1361 ft | 2 kts | 332° |
| 2026-05-05 18:34 | -7.21621 | -39.27235 | 1361 ft | 3 kts | 299° |
| 2026-05-05 18:34 | -7.21610 | -39.27261 | 1361 ft | 4 kts | 290° |
| 2026-05-05 18:34 | -7.21599 | -39.27291 | 1362 ft | 4 kts | 289° |
| 2026-05-05 18:35 | -7.21598 | -39.27322 | 1362 ft | 4 kts | 252° |
| 2026-05-05 18:35 | -7.21613 | -39.27352 | 1363 ft | 5 kts | 243° |
| 2026-05-05 18:35 | -7.21633 | -39.27398 | 1363 ft | 8 kts | 246° |
| 2026-05-05 18:35 | -7.21662 | -39.27461 | 1364 ft | 11 kts | 245° |
| 2026-05-05 18:36 | -7.21688 | -39.27536 | 1364 ft | 11 kts | 272° |
| 2026-05-05 18:36 | -7.21664 | -39.27622 | 1364 ft | 13 kts | 285° |
| 2026-05-05 18:36 | -7.21641 | -39.27709 | 1363 ft | 9 kts | 286° |
| 2026-05-05 18:36 | -7.21620 | -39.27755 | 1363 ft | 4 kts | 347° |
| 2026-05-05 18:37 | -7.21616 | -39.27734 | 1363 ft | 2 kts | 110° |
| 2026-05-05 18:37 | -7.21622 | -39.27718 | 1363 ft | 4 kts | 111° |
| 2026-05-05 18:37 | -7.21719 | -39.27468 | 1364 ft | 83 kts | 111° |
| 2026-05-05 18:37 | -7.22014 | -39.26675 | 1431 ft | 148 kts | 112° |
| 2026-05-05 18:38 | -7.22401 | -39.25623 | 1828 ft | 177 kts | 112° |
| 2026-05-05 18:38 | -7.22875 | -39.24384 | 2070 ft | 207 kts | 112° |
| 2026-05-05 18:38 | -7.23418 | -39.22954 | 2589 ft | 226 kts | 111° |
| 2026-05-05 18:38 | -7.23978 | -39.21493 | 3580 ft | 225 kts | 114° |
| 2026-05-05 18:39 | -7.24609 | -39.20135 | 4751 ft | 213 kts | 115° |
| 2026-05-05 18:39 | -7.25218 | -39.18830 | 5763 ft | 208 kts | 115° |
| 2026-05-05 18:39 | -7.25825 | -39.17531 | 6635 ft | 209 kts | 115° |
| 2026-05-05 18:39 | -7.26437 | -39.16222 | 7445 ft | 212 kts | 115° |
| 2026-05-05 18:40 | -7.27068 | -39.14870 | 8282 ft | 216 kts | 115° |
| 2026-05-05 18:40 | -7.27700 | -39.13516 | 9129 ft | 219 kts | 114° |
| 2026-05-05 18:40 | -7.28339 | -39.12145 | 9983 ft | 221 kts | 114° |
| 2026-05-05 18:40 | -7.28992 | -39.10746 | 10786 ft | 226 kts | 114° |
| 2026-05-05 18:41 | -7.29671 | -39.09290 | 11576 ft | 231 kts | 114° |
| 2026-05-05 18:41 | -7.30352 | -39.07829 | 12353 ft | 236 kts | 113° |
| 2026-05-05 18:41 | -7.31048 | -39.06338 | 13129 ft | 241 kts | 113° |
| 2026-05-05 18:41 | -7.31760 | -39.04810 | 13929 ft | 245 kts | 113° |
| 2026-05-05 18:42 | -7.32481 | -39.03262 | 14735 ft | 248 kts | 114° |
| 2026-05-05 18:42 | -7.33215 | -39.01688 | 15529 ft | 251 kts | 114° |
| 2026-05-05 18:42 | -7.33955 | -39.00102 | 16290 ft | 253 kts | 114° |
| 2026-05-05 18:42 | -7.34704 | -38.98495 | 17019 ft | 257 kts | 114° |
| 2026-05-05 18:43 | -7.35461 | -38.96872 | 17737 ft | 260 kts | 114° |
| 2026-05-05 18:43 | -7.36235 | -38.95210 | 18427 ft | 264 kts | 113° |
| 2026-05-05 18:43 | -7.37010 | -38.93547 | 19089 ft | 268 kts | 114° |
| 2026-05-05 18:43 | -7.37811 | -38.91827 | 19745 ft | 273 kts | 114° |
| 2026-05-05 18:44 | -7.38351 | -38.90668 | 20163 ft | 276 kts | 114° |
| 2026-05-05 18:44 | -7.39164 | -38.88922 | 20781 ft | 280 kts | 113° |
| 2026-05-05 18:44 | -7.39997 | -38.87135 | 21402 ft | 284 kts | 113° |
| 2026-05-05 18:44 | -7.41133 | -38.84711 | 22201 ft | 290 kts | 114° |
| 2026-05-05 18:45 | -7.41700 | -38.83509 | 22576 ft | 292 kts | 114° |
| 2026-05-05 18:45 | -7.42875 | -38.81023 | 23334 ft | 297 kts | 114° |
| 2026-05-05 18:45 | -7.43770 | -38.79128 | 23891 ft | 301 kts | 115° |
| 2026-05-05 18:45 | -7.44670 | -38.77222 | 24429 ft | 304 kts | 115° |
| 2026-05-05 18:46 | -7.45577 | -38.75302 | 24965 ft | 306 kts | 115° |
| 2026-05-05 18:46 | -7.46805 | -38.73577 | 25423 ft | 309 kts | 143° |
| 2026-05-05 18:46 | -7.48754 | -38.72672 | 25851 ft | 310 kts | 174° |
| 2026-05-05 18:46 | -7.50873 | -38.72881 | 26295 ft | 309 kts | 205° |
| 2026-05-05 18:47 | -7.52637 | -38.74097 | 26793 ft | 308 kts | 224° |
| 2026-05-05 18:47 | -7.54197 | -38.75569 | 27334 ft | 308 kts | 224° |
| 2026-05-05 18:47 | -7.55750 | -38.77029 | 27848 ft | 308 kts | 221° |
| 2026-05-05 18:47 | -7.57526 | -38.78265 | 28317 ft | 311 kts | 208° |
| 2026-05-05 18:48 | -7.59558 | -38.79076 | 28770 ft | 315 kts | 199° |
| 2026-05-05 18:48 | -7.61667 | -38.79691 | 29238 ft | 317 kts | 197° |
| 2026-05-05 18:48 | -7.63817 | -38.80253 | 29691 ft | 320 kts | 196° |
| 2026-05-05 18:48 | -7.65993 | -38.80794 | 30128 ft | 322 kts | 196° |
| 2026-05-05 18:49 | -7.68173 | -38.81323 | 30546 ft | 325 kts | 195° |
| 2026-05-05 18:49 | -7.70384 | -38.81855 | 30966 ft | 327 kts | 195° |
| 2026-05-05 18:49 | -7.72612 | -38.82388 | 31390 ft | 329 kts | 195° |
| 2026-05-05 18:49 | -7.74867 | -38.82927 | 31796 ft | 332 kts | 195° |
| 2026-05-05 18:50 | -7.77112 | -38.83464 | 32181 ft | 334 kts | 195° |
| 2026-05-05 18:50 | -7.79398 | -38.84010 | 32562 ft | 337 kts | 196° |
| 2026-05-05 18:50 | -7.81668 | -38.84552 | 32974 ft | 339 kts | 196° |
| 2026-05-05 18:50 | -7.83995 | -38.85108 | 33400 ft | 341 kts | 196° |
| 2026-05-05 18:51 | -7.86316 | -38.85663 | 33827 ft | 343 kts | 196° |
| 2026-05-05 18:51 | -7.88637 | -38.86218 | 33986 ft | 342 kts | 196° |
| 2026-05-05 18:51 | -7.91013 | -38.86786 | 34029 ft | 353 kts | 196° |
| 2026-05-05 18:51 | -7.93504 | -38.87382 | 34029 ft | 365 kts | 196° |
| 2026-05-05 18:52 | -7.98400 | -38.89392 | 34043 ft | 383 kts | 216° |
| 2026-05-05 18:52 | -8.00535 | -38.91026 | 34040 ft | 394 kts | 218° |
| 2026-05-05 18:52 | -8.02911 | -38.92482 | 34041 ft | 407 kts | 207° |
| 2026-05-05 18:53 | -8.08188 | -38.95023 | 34035 ft | 429 kts | 201° |
| 2026-05-05 18:53 | -8.11114 | -38.95815 | 34038 ft | 442 kts | 192° |
| 2026-05-05 18:53 | -8.14230 | -38.96329 | 34037 ft | 452 kts | 192° |
| 2026-05-05 18:54 | -8.20571 | -38.97471 | 34033 ft | 470 kts | 193° |
| 2026-05-05 18:54 | -8.27189 | -38.98691 | 34031 ft | 483 kts | 193° |
| 2026-05-05 18:55 | -8.33830 | -38.99917 | 34022 ft | 486 kts | 193° |
| 2026-05-05 18:55 | -8.40492 | -39.01148 | 34014 ft | 481 kts | 193° |
| 2026-05-05 18:56 | -8.47079 | -39.02364 | 34008 ft | 480 kts | 193° |
| 2026-05-05 18:56 | -8.53695 | -39.03580 | 34005 ft | 481 kts | 192° |
| 2026-05-05 18:57 | -8.60297 | -39.04793 | 33997 ft | 480 kts | 193° |
| 2026-05-05 18:57 | -8.66865 | -39.06001 | 33987 ft | 481 kts | 193° |
| 2026-05-05 18:58 | -8.73500 | -39.07222 | 33979 ft | 481 kts | 193° |
| 2026-05-05 18:58 | -8.80123 | -39.08443 | 33979 ft | 480 kts | 193° |
| 2026-05-05 18:59 | -8.86711 | -39.09664 | 33986 ft | 480 kts | 193° |
| 2026-05-05 18:59 | -8.93286 | -39.10883 | 33993 ft | 480 kts | 193° |
| 2026-05-05 19:00 | -8.99892 | -39.12108 | 33999 ft | 479 kts | 193° |
| 2026-05-05 19:00 | -9.06465 | -39.13328 | 34011 ft | 479 kts | 193° |
| 2026-05-05 19:01 | -9.13040 | -39.14548 | 34024 ft | 479 kts | 193° |
| 2026-05-05 19:01 | -9.19626 | -39.15771 | 34028 ft | 479 kts | 193° |
| 2026-05-05 19:02 | -9.26221 | -39.16996 | 34027 ft | 479 kts | 193° |
| 2026-05-05 19:02 | -9.32777 | -39.18214 | 34027 ft | 480 kts | 193° |
| 2026-05-05 19:03 | -9.39377 | -39.19441 | 34025 ft | 480 kts | 193° |
| 2026-05-05 19:03 | -9.45962 | -39.20666 | 34026 ft | 479 kts | 193° |
| 2026-05-05 19:04 | -9.52546 | -39.21891 | 34026 ft | 479 kts | 193° |
| 2026-05-05 19:04 | -9.59129 | -39.23116 | 34027 ft | 479 kts | 193° |
| 2026-05-05 19:05 | -9.65669 | -39.24333 | 34028 ft | 479 kts | 193° |
| 2026-05-05 19:05 | -9.72239 | -39.25557 | 34027 ft | 479 kts | 193° |
| 2026-05-05 19:06 | -9.78836 | -39.26786 | 34028 ft | 478 kts | 193° |
| 2026-05-05 19:06 | -9.85383 | -39.28006 | 34026 ft | 479 kts | 193° |
| 2026-05-05 19:07 | -9.90877 | -39.29031 | 34025 ft | 479 kts | 194° |
| 2026-05-05 19:07 | -9.98574 | -39.30463 | 34028 ft | 480 kts | 193° |
| 2026-05-05 19:08 | -10.05140 | -39.31682 | 34032 ft | 479 kts | 193° |
| 2026-05-05 19:08 | -10.11731 | -39.32907 | 34043 ft | 478 kts | 193° |
| 2026-05-05 19:09 | -10.18305 | -39.34129 | 34054 ft | 479 kts | 193° |
| 2026-05-05 19:09 | -10.24864 | -39.35348 | 34060 ft | 479 kts | 194° |
| 2026-05-05 19:10 | -10.31468 | -39.36588 | 34056 ft | 479 kts | 194° |
| 2026-05-05 19:10 | -10.38018 | -39.37820 | 34053 ft | 480 kts | 194° |
| 2026-05-05 19:11 | -10.44608 | -39.39051 | 34046 ft | 480 kts | 193° |
| 2026-05-05 19:11 | -10.51179 | -39.40279 | 34042 ft | 479 kts | 194° |
| 2026-05-05 19:12 | -10.57765 | -39.41510 | 34039 ft | 480 kts | 194° |
| 2026-05-05 19:12 | -10.64320 | -39.42736 | 34037 ft | 479 kts | 194° |
| 2026-05-05 19:13 | -10.70930 | -39.43973 | 34034 ft | 481 kts | 194° |
| 2026-05-05 19:13 | -10.77493 | -39.45202 | 34032 ft | 480 kts | 194° |
| 2026-05-05 19:14 | -10.84109 | -39.46441 | 34027 ft | 480 kts | 194° |
| 2026-05-05 19:14 | -10.90684 | -39.47673 | 34023 ft | 479 kts | 194° |
| 2026-05-05 19:15 | -10.97288 | -39.48911 | 34022 ft | 480 kts | 194° |
| 2026-05-05 19:15 | -11.03888 | -39.50149 | 34028 ft | 479 kts | 194° |
| 2026-05-05 19:16 | -11.10440 | -39.51378 | 34030 ft | 480 kts | 194° |
| 2026-05-05 19:16 | -11.17019 | -39.52613 | 34046 ft | 479 kts | 194° |
| 2026-05-05 19:17 | -11.23618 | -39.53852 | 34057 ft | 481 kts | 194° |
| 2026-05-05 19:17 | -11.30225 | -39.55093 | 34061 ft | 479 kts | 194° |
| 2026-05-05 19:18 | -11.36781 | -39.56325 | 34063 ft | 478 kts | 194° |
| 2026-05-05 19:18 | -11.43345 | -39.57560 | 34064 ft | 478 kts | 194° |
| 2026-05-05 19:19 | -11.49865 | -39.58787 | 34068 ft | 478 kts | 194° |
| 2026-05-05 19:19 | -11.56441 | -39.60025 | 34070 ft | 478 kts | 194° |
| 2026-05-05 19:20 | -11.63027 | -39.61265 | 34061 ft | 480 kts | 194° |
| 2026-05-05 19:20 | -11.69594 | -39.62502 | 34069 ft | 479 kts | 194° |
| 2026-05-05 19:21 | -11.76163 | -39.63741 | 34062 ft | 478 kts | 194° |
| 2026-05-05 19:21 | -11.82706 | -39.64975 | 34065 ft | 479 kts | 194° |
| 2026-05-05 19:22 | -11.89113 | -39.66770 | 34080 ft | 470 kts | 207° |
| 2026-05-05 19:22 | -11.94781 | -39.70015 | 34070 ft | 468 kts | 213° |
| 2026-05-05 19:23 | -12.00441 | -39.73403 | 34067 ft | 467 kts | 213° |
| 2026-05-05 19:23 | -12.06061 | -39.76760 | 34063 ft | 466 kts | 213° |
| 2026-05-05 19:24 | -12.11665 | -39.80107 | 34061 ft | 468 kts | 213° |
| 2026-05-05 19:24 | -12.17283 | -39.83466 | 34066 ft | 467 kts | 213° |
| 2026-05-05 19:25 | -12.22893 | -39.86821 | 34071 ft | 465 kts | 213° |
| 2026-05-05 19:25 | -12.28515 | -39.90185 | 34069 ft | 464 kts | 213° |
| 2026-05-05 19:26 | -12.34093 | -39.93525 | 34068 ft | 465 kts | 213° |
| 2026-05-05 19:26 | -12.39692 | -39.96878 | 34069 ft | 464 kts | 213° |
| 2026-05-05 19:27 | -12.45259 | -40.00214 | 34078 ft | 465 kts | 213° |
| 2026-05-05 19:27 | -12.50849 | -40.03565 | 34073 ft | 464 kts | 213° |
| 2026-05-05 19:28 | -12.56410 | -40.06901 | 34077 ft | 463 kts | 213° |
| 2026-05-05 19:28 | -12.61986 | -40.10247 | 34082 ft | 461 kts | 213° |
| 2026-05-05 19:29 | -12.67535 | -40.13579 | 34087 ft | 462 kts | 213° |
| 2026-05-05 19:29 | -12.73077 | -40.16908 | 34085 ft | 461 kts | 213° |
| 2026-05-05 19:30 | -12.78622 | -40.20242 | 34090 ft | 462 kts | 213° |
| 2026-05-05 19:30 | -12.84156 | -40.23570 | 34109 ft | 461 kts | 213° |
| 2026-05-05 19:31 | -12.89699 | -40.26904 | 34123 ft | 457 kts | 213° |
| 2026-05-05 19:31 | -12.92364 | -40.28508 | 34114 ft | 440 kts | 213° |
| 2026-05-05 19:31 | -12.95023 | -40.30109 | 34129 ft | 438 kts | 213° |
| 2026-05-05 19:32 | -13.00270 | -40.33270 | 34129 ft | 438 kts | 213° |
| 2026-05-05 19:32 | -13.05559 | -40.36457 | 34131 ft | 438 kts | 213° |
| 2026-05-05 19:33 | -13.10797 | -40.39615 | 34139 ft | 437 kts | 213° |
| 2026-05-05 19:33 | -13.16064 | -40.42792 | 34146 ft | 438 kts | 213° |
| 2026-05-05 19:34 | -13.21328 | -40.45969 | 34162 ft | 437 kts | 213° |
| 2026-05-05 19:35 | -13.29008 | -40.50605 | 34176 ft | 417 kts | 213° |
| 2026-05-05 19:35 | -13.34045 | -40.53649 | 34059 ft | 421 kts | 213° |
| 2026-05-05 19:35 | -13.36580 | -40.55182 | 33581 ft | 422 kts | 213° |
| 2026-05-05 19:36 | -13.39145 | -40.56733 | 33110 ft | 424 kts | 213° |
| 2026-05-05 19:36 | -13.41678 | -40.58264 | 32660 ft | 425 kts | 213° |
| 2026-05-05 19:36 | -13.44221 | -40.59803 | 32189 ft | 427 kts | 213° |
| 2026-05-05 19:36 | -13.46805 | -40.61366 | 31707 ft | 430 kts | 213° |
| 2026-05-05 19:37 | -13.49412 | -40.62944 | 31224 ft | 433 kts | 213° |
| 2026-05-05 19:37 | -13.52012 | -40.64518 | 30739 ft | 433 kts | 213° |
| 2026-05-05 19:37 | -13.54598 | -40.66083 | 30259 ft | 433 kts | 213° |
| 2026-05-05 19:37 | -13.57181 | -40.67648 | 29777 ft | 432 kts | 213° |
| 2026-05-05 19:38 | -13.59777 | -40.69220 | 29294 ft | 430 kts | 213° |
| 2026-05-05 19:38 | -13.62353 | -40.70781 | 28804 ft | 429 kts | 213° |
| 2026-05-05 19:38 | -13.64902 | -40.72327 | 28328 ft | 425 kts | 213° |
| 2026-05-05 19:38 | -13.66581 | -40.73344 | 28019 ft | 422 kts | 213° |
| 2026-05-05 19:39 | -13.69105 | -40.74865 | 27545 ft | 418 kts | 211° |
| 2026-05-05 19:39 | -13.72713 | -40.76360 | 26939 ft | 419 kts | 197° |
| 2026-05-05 19:39 | -13.74626 | -40.76688 | 26592 ft | 421 kts | 187° |
| 2026-05-05 19:39 | -13.78507 | -40.76740 | 25957 ft | 417 kts | 181° |
| 2026-05-05 19:40 | -13.81428 | -40.76633 | 25488 ft | 414 kts | 179° |
| 2026-05-05 19:40 | -13.84296 | -40.76495 | 25034 ft | 410 kts | 179° |
| 2026-05-05 19:40 | -13.87139 | -40.76349 | 24580 ft | 407 kts | 179° |
| 2026-05-05 19:40 | -13.89957 | -40.76201 | 24133 ft | 403 kts | 178° |
| 2026-05-05 19:41 | -13.92739 | -40.76053 | 23690 ft | 400 kts | 178° |
| 2026-05-05 19:41 | -13.95502 | -40.75907 | 23252 ft | 397 kts | 178° |
| 2026-05-05 19:41 | -13.98273 | -40.75760 | 22812 ft | 394 kts | 178° |
| 2026-05-05 19:41 | -14.01001 | -40.75615 | 22382 ft | 391 kts | 178° |
| 2026-05-05 19:42 | -14.03710 | -40.75471 | 21959 ft | 389 kts | 178° |
| 2026-05-05 19:42 | -14.06414 | -40.75327 | 21532 ft | 386 kts | 178° |
| 2026-05-05 19:42 | -14.09114 | -40.75184 | 21105 ft | 384 kts | 178° |
| 2026-05-05 19:42 | -14.11754 | -40.75044 | 20682 ft | 380 kts | 178° |
| 2026-05-05 19:43 | -14.14402 | -40.74903 | 20264 ft | 378 kts | 177° |
| 2026-05-05 19:43 | -14.17026 | -40.74764 | 19847 ft | 376 kts | 177° |
| 2026-05-05 19:43 | -14.19634 | -40.74625 | 19431 ft | 372 kts | 177° |
| 2026-05-05 19:43 | -14.22202 | -40.74488 | 19022 ft | 371 kts | 177° |
| 2026-05-05 19:44 | -14.24783 | -40.74351 | 18615 ft | 368 kts | 177° |
| 2026-05-05 19:44 | -14.27319 | -40.74216 | 18211 ft | 365 kts | 177° |
| 2026-05-05 19:44 | -14.29851 | -40.74081 | 17808 ft | 363 kts | 176° |
| 2026-05-05 19:44 | -14.32387 | -40.73946 | 17405 ft | 362 kts | 176° |
| 2026-05-05 19:45 | -14.34888 | -40.73812 | 17010 ft | 360 kts | 176° |
| 2026-05-05 19:45 | -14.37414 | -40.73678 | 16606 ft | 359 kts | 176° |
| 2026-05-05 19:45 | -14.39901 | -40.73546 | 16209 ft | 357 kts | 176° |
| 2026-05-05 19:45 | -14.42376 | -40.73414 | 15814 ft | 355 kts | 175° |
| 2026-05-05 19:46 | -14.44852 | -40.73282 | 15424 ft | 354 kts | 175° |
| 2026-05-05 19:46 | -14.47296 | -40.73151 | 15037 ft | 353 kts | 175° |
| 2026-05-05 19:46 | -14.49758 | -40.73020 | 14645 ft | 352 kts | 175° |
| 2026-05-05 19:46 | -14.52213 | -40.72889 | 14264 ft | 350 kts | 175° |
| 2026-05-05 19:47 | -14.54649 | -40.72759 | 13877 ft | 348 kts | 175° |
| 2026-05-05 19:47 | -14.57066 | -40.72630 | 13498 ft | 346 kts | 174° |
| 2026-05-05 19:47 | -14.59461 | -40.72502 | 13122 ft | 345 kts | 174° |
| 2026-05-05 19:47 | -14.61849 | -40.72374 | 12751 ft | 343 kts | 174° |
| 2026-05-05 19:48 | -14.64245 | -40.72247 | 12376 ft | 341 kts | 174° |
| 2026-05-05 19:48 | -14.66625 | -40.72120 | 11999 ft | 339 kts | 174° |
| 2026-05-05 19:48 | -14.68940 | -40.71996 | 11628 ft | 333 kts | 174° |
| 2026-05-05 19:48 | -14.71233 | -40.71874 | 11266 ft | 324 kts | 174° |
| 2026-05-05 19:49 | -14.73461 | -40.71755 | 10915 ft | 316 kts | 174° |
| 2026-05-05 19:49 | -14.74928 | -40.71676 | 10686 ft | 311 kts | 174° |
| 2026-05-05 19:49 | -14.77749 | -40.71526 | 10229 ft | 300 kts | 174° |
| 2026-05-05 19:49 | -14.79838 | -40.71414 | 9894 ft | 293 kts | 173° |
| 2026-05-05 19:50 | -14.81874 | -40.71305 | 9572 ft | 291 kts | 173° |
| 2026-05-05 19:50 | -14.83886 | -40.71196 | 9134 ft | 291 kts | 173° |
| 2026-05-05 19:50 | -14.85880 | -40.71090 | 8776 ft | 283 kts | 173° |
| 2026-05-05 19:50 | -14.87828 | -40.70987 | 8453 ft | 274 kts | 173° |
| 2026-05-05 19:51 | -14.89716 | -40.70885 | 8147 ft | 266 kts | 173° |
| 2026-05-05 19:51 | -14.91551 | -40.70787 | 7851 ft | 258 kts | 173° |
| 2026-05-05 19:51 | -14.93308 | -40.70994 | 7564 ft | 258 kts | 201° |
| 2026-05-05 19:51 | -14.94807 | -40.71977 | 7367 ft | 251 kts | 212° |
| 2026-05-05 19:52 | -14.96204 | -40.73014 | 7094 ft | 246 kts | 212° |
| 2026-05-05 19:52 | -14.97597 | -40.74056 | 6821 ft | 241 kts | 212° |
| 2026-05-05 19:52 | -14.98928 | -40.75055 | 6558 ft | 236 kts | 212° |
| 2026-05-05 19:52 | -15.00028 | -40.76300 | 6295 ft | 238 kts | 246° |
| 2026-05-05 19:53 | -15.00157 | -40.77982 | 5995 ft | 241 kts | 286° |
| 2026-05-05 19:53 | -14.99338 | -40.79471 | 5635 ft | 240 kts | 308° |
| 2026-05-05 19:53 | -14.98344 | -40.80862 | 5331 ft | 237 kts | 307° |
| 2026-05-05 19:53 | -14.97378 | -40.82215 | 5015 ft | 232 kts | 307° |
| 2026-05-05 19:54 | -14.96445 | -40.83525 | 4643 ft | 220 kts | 307° |
| 2026-05-05 19:54 | -14.95595 | -40.84719 | 4411 ft | 192 kts | 307° |
| 2026-05-05 19:54 | -14.94842 | -40.85776 | 4127 ft | 171 kts | 307° |
| 2026-05-05 19:54 | -14.94159 | -40.86734 | 3841 ft | 157 kts | 307° |
| 2026-05-05 19:55 | -14.93529 | -40.87618 | 3648 ft | 153 kts | 307° |
| 2026-05-05 19:55 | -14.92894 | -40.88509 | 3450 ft | 153 kts | 307° |
| 2026-05-05 19:55 | -14.92277 | -40.89380 | 3246 ft | 151 kts | 306° |
| 2026-05-05 19:55 | -14.91659 | -40.90261 | 3015 ft | 148 kts | 307° |
| 2026-05-05 19:56 | -14.91072 | -40.91077 | 2921 ft | 132 kts | 307° |
| 2026-05-05 19:56 | -14.90631 | -40.91696 | 2924 ft | 74 kts | 306° |
| 2026-05-05 19:56 | -14.90412 | -40.92004 | 2928 ft | 45 kts | 306° |
| 2026-05-05 19:56 | -14.90291 | -40.92174 | 2928 ft | 13 kts | 305° |
| 2026-05-05 19:57 | -14.90276 | -40.92239 | 2929 ft | 7 kts | 258° |
| 2026-05-05 19:57 | -14.90263 | -40.92266 | 2929 ft | 6 kts | 352° |
| 2026-05-05 19:57 | -14.90269 | -40.92206 | 2928 ft | 9 kts | 124° |
| 2026-05-05 19:57 | -14.90313 | -40.92146 | 2928 ft | 11 kts | 126° |
| 2026-05-05 19:58 | -14.90367 | -40.92068 | 2928 ft | 15 kts | 126° |
| 2026-05-05 19:58 | -14.90438 | -40.91968 | 2927 ft | 19 kts | 126° |
| 2026-05-05 19:58 | -14.90524 | -40.91848 | 2925 ft | 21 kts | 126° |
| 2026-05-05 19:58 | -14.90614 | -40.91722 | 2924 ft | 20 kts | 126° |
| 2026-05-05 19:59 | -14.90673 | -40.91638 | 2924 ft | 12 kts | 130° |
| 2026-05-05 19:59 | -14.90750 | -40.91642 | 2925 ft | 12 kts | 215° |
| 2026-05-05 19:59 | -14.90814 | -40.91690 | 2927 ft | 10 kts | 216° |
| 2026-05-05 19:59 | -14.90869 | -40.91733 | 2929 ft | 9 kts | 217° |
| 2026-05-05 20:00 | -14.90906 | -40.91762 | 2931 ft | 5 kts | 217° |
| 2026-05-05 20:00 | -14.90919 | -40.91772 | 2931 ft | 0 kts | 217° |